TAM3330 SBGR-SBVT
Flight info
| Callsign | TAM3330 |
|---|---|
| Flight time | 1h 2m |
| Altitude | 33000 |
| Route | UREMI UZ42 IMDAB DCT SEGLI DCT TODET |
| Aircraft | A321/M-SDE3FGHIRWY/LB1 |
Departure
| Time | 2026-04-30 20:26 |
|---|---|
| Airport | São Paulo/Guarulhos–Governor André Franco Montoro International Airport (SBGR) |
Arrival
| Time | 2026-04-30 21:28 |
|---|---|
| Airport | Eurico de Aguiar Salles International Airport (SBVT) |
| Time | Latitude | Longitude | Altitude | Speed | Heading |
|---|---|---|---|---|---|
| 2026-04-30 19:13 | -23.42851 | -46.48230 | 2469 ft | 0 kts | 266° |
| 2026-04-30 20:20 | -23.42850 | -46.48219 | 2469 ft | 2 kts | 266° |
| 2026-04-30 20:20 | -23.42849 | -46.48203 | 2468 ft | 2 kts | 266° |
| 2026-04-30 20:20 | -23.42848 | -46.48192 | 2468 ft | 2 kts | 265° |
| 2026-04-30 20:20 | -23.42841 | -46.48178 | 2468 ft | 2 kts | 214° |
| 2026-04-30 20:21 | -23.42829 | -46.48173 | 2469 ft | 0 kts | 178° |
| 2026-04-30 20:21 | -23.42823 | -46.48174 | 2469 ft | 1 kts | 172° |
| 2026-04-30 20:21 | -23.42821 | -46.48175 | 2469 ft | 0 kts | 174° |
| 2026-04-30 20:23 | -23.42822 | -46.48174 | 2468 ft | 0 kts | 174° |
| 2026-04-30 20:23 | -23.42836 | -46.48172 | 2468 ft | 4 kts | 166° |
| 2026-04-30 20:23 | -23.42872 | -46.48155 | 2468 ft | 6 kts | 159° |
| 2026-04-30 20:23 | -23.42922 | -46.48145 | 2468 ft | 8 kts | 173° |
| 2026-04-30 20:24 | -23.42982 | -46.48138 | 2468 ft | 8 kts | 175° |
| 2026-04-30 20:24 | -23.43046 | -46.48132 | 2468 ft | 9 kts | 175° |
| 2026-04-30 20:24 | -23.43114 | -46.48124 | 2468 ft | 10 kts | 168° |
| 2026-04-30 20:24 | -23.43184 | -46.48103 | 2468 ft | 10 kts | 164° |
| 2026-04-30 20:25 | -23.43329 | -46.48049 | 2468 ft | 10 kts | 135° |
| 2026-04-30 20:25 | -23.43329 | -46.47964 | 2468 ft | 15 kts | 74° |
| 2026-04-30 20:26 | -23.43022 | -46.46831 | 2469 ft | 141 kts | 74° |
| 2026-04-30 20:26 | -23.42297 | -46.44269 | 3126 ft | 186 kts | 75° |
| 2026-04-30 20:26 | -23.41894 | -46.42897 | 3455 ft | 197 kts | 75° |
| 2026-04-30 20:27 | -23.41024 | -46.39877 | 4005 ft | 225 kts | 75° |
| 2026-04-30 20:27 | -23.40215 | -46.36300 | 4525 ft | 261 kts | 91° |
| 2026-04-30 20:28 | -23.41170 | -46.32393 | 5647 ft | 272 kts | 109° |
| 2026-04-30 20:28 | -23.42487 | -46.28477 | 6880 ft | 281 kts | 109° |
| 2026-04-30 20:29 | -23.43758 | -46.24387 | 7964 ft | 295 kts | 104° |
| 2026-04-30 20:30 | -23.45059 | -46.17330 | 8801 ft | 342 kts | 99° |
| 2026-04-30 20:30 | -23.46454 | -46.09224 | 9524 ft | 383 kts | 99° |
| 2026-04-30 20:31 | -23.47965 | -46.00478 | 10843 ft | 396 kts | 100° |
| 2026-04-30 20:32 | -23.48677 | -45.91466 | 12100 ft | 403 kts | 82° |
| 2026-04-30 20:32 | -23.47407 | -45.85715 | 13646 ft | 385 kts | 74° |
| 2026-04-30 20:33 | -23.46713 | -45.82954 | 14489 ft | 374 kts | 74° |
| 2026-04-30 20:33 | -23.45365 | -45.77551 | 15583 ft | 371 kts | 75° |
| 2026-04-30 20:33 | -23.44692 | -45.74826 | 15975 ft | 375 kts | 75° |
| 2026-04-30 20:34 | -23.43335 | -45.69313 | 16798 ft | 379 kts | 75° |
| 2026-04-30 20:34 | -23.41966 | -45.63743 | 17579 ft | 384 kts | 75° |
| 2026-04-30 20:35 | -23.41274 | -45.60926 | 17940 ft | 387 kts | 75° |
| 2026-04-30 20:35 | -23.40585 | -45.58134 | 18318 ft | 389 kts | 74° |
| 2026-04-30 20:35 | -23.39173 | -45.52411 | 19014 ft | 395 kts | 74° |
| 2026-04-30 20:36 | -23.38508 | -45.49497 | 19341 ft | 399 kts | 76° |
| 2026-04-30 20:36 | -23.37876 | -45.46549 | 19673 ft | 402 kts | 76° |
| 2026-04-30 20:36 | -23.36612 | -45.40588 | 20336 ft | 408 kts | 76° |
| 2026-04-30 20:37 | -23.35971 | -45.37574 | 20672 ft | 410 kts | 76° |
| 2026-04-30 20:37 | -23.35328 | -45.34565 | 20997 ft | 413 kts | 76° |
| 2026-04-30 20:37 | -23.34674 | -45.31511 | 21329 ft | 416 kts | 76° |
| 2026-04-30 20:37 | -23.34014 | -45.28440 | 21631 ft | 419 kts | 76° |
| 2026-04-30 20:38 | -23.33349 | -45.25348 | 21942 ft | 422 kts | 76° |
| 2026-04-30 20:38 | -23.32681 | -45.22239 | 22269 ft | 424 kts | 76° |
| 2026-04-30 20:38 | -23.32008 | -45.19112 | 22579 ft | 427 kts | 76° |
| 2026-04-30 20:39 | -23.30649 | -45.12797 | 23200 ft | 432 kts | 76° |
| 2026-04-30 20:39 | -23.29963 | -45.09613 | 23523 ft | 434 kts | 76° |
| 2026-04-30 20:39 | -23.29272 | -45.06410 | 23829 ft | 437 kts | 76° |
| 2026-04-30 20:40 | -23.27887 | -45.00004 | 24506 ft | 440 kts | 75° |
| 2026-04-30 20:40 | -23.27185 | -44.96761 | 24834 ft | 442 kts | 76° |
| 2026-04-30 20:40 | -23.26479 | -44.93502 | 25140 ft | 445 kts | 75° |
| 2026-04-30 20:41 | -23.25054 | -44.86936 | 25766 ft | 449 kts | 76° |
| 2026-04-30 20:41 | -23.24335 | -44.83626 | 26050 ft | 452 kts | 75° |
| 2026-04-30 20:41 | -23.23612 | -44.80300 | 26344 ft | 454 kts | 75° |
| 2026-04-30 20:41 | -23.22885 | -44.76957 | 26654 ft | 456 kts | 75° |
| 2026-04-30 20:42 | -23.22154 | -44.73602 | 26941 ft | 458 kts | 75° |
| 2026-04-30 20:42 | -23.21417 | -44.70228 | 27231 ft | 460 kts | 75° |
| 2026-04-30 20:42 | -23.19828 | -44.63525 | 27790 ft | 464 kts | 71° |
| 2026-04-30 20:43 | -23.18782 | -44.60215 | 28070 ft | 465 kts | 67° |
| 2026-04-30 20:43 | -23.17555 | -44.56967 | 28341 ft | 466 kts | 65° |
| 2026-04-30 20:43 | -23.16264 | -44.53728 | 28594 ft | 469 kts | 64° |
| 2026-04-30 20:44 | -23.13645 | -44.47214 | 29110 ft | 473 kts | 64° |
| 2026-04-30 20:44 | -23.12329 | -44.43932 | 29383 ft | 475 kts | 64° |
| 2026-04-30 20:44 | -23.09702 | -44.37367 | 30155 ft | 473 kts | 65° |
| 2026-04-30 20:45 | -23.07097 | -44.30851 | 30915 ft | 470 kts | 64° |
| 2026-04-30 20:45 | -23.05798 | -44.27602 | 31260 ft | 470 kts | 65° |
| 2026-04-30 20:45 | -23.04498 | -44.24355 | 31562 ft | 470 kts | 65° |
| 2026-04-30 20:46 | -23.00584 | -44.14584 | 32356 ft | 472 kts | 64° |
| 2026-04-30 20:46 | -22.99269 | -44.11311 | 32615 ft | 473 kts | 65° |
| 2026-04-30 20:47 | -22.96651 | -44.04801 | 33035 ft | 476 kts | 65° |
| 2026-04-30 20:47 | -22.95320 | -44.01492 | 33084 ft | 482 kts | 65° |
| 2026-04-30 20:48 | -22.92606 | -43.94750 | 33088 ft | 494 kts | 65° |
| 2026-04-30 20:48 | -22.91223 | -43.91318 | 33088 ft | 500 kts | 65° |
| 2026-04-30 20:48 | -22.88413 | -43.84349 | 33087 ft | 505 kts | 65° |
| 2026-04-30 20:49 | -22.85591 | -43.77365 | 33085 ft | 505 kts | 65° |
| 2026-04-30 20:50 | -22.81366 | -43.66924 | 33079 ft | 504 kts | 65° |
| 2026-04-30 20:50 | -22.78566 | -43.60020 | 33076 ft | 504 kts | 65° |
| 2026-04-30 20:51 | -22.75738 | -43.53063 | 33071 ft | 504 kts | 65° |
| 2026-04-30 20:51 | -22.71500 | -43.42650 | 33066 ft | 504 kts | 65° |
| 2026-04-30 20:52 | -22.68675 | -43.35719 | 33069 ft | 503 kts | 65° |
| 2026-04-30 20:53 | -22.64454 | -43.25378 | 33079 ft | 503 kts | 65° |
| 2026-04-30 20:53 | -22.61629 | -43.18478 | 33082 ft | 502 kts | 65° |
| 2026-04-30 20:54 | -22.57383 | -43.08123 | 33083 ft | 503 kts | 65° |
| 2026-04-30 20:55 | -22.53126 | -42.97755 | 33085 ft | 503 kts | 65° |
| 2026-04-30 20:55 | -22.50286 | -42.90855 | 33083 ft | 502 kts | 65° |
| 2026-04-30 20:56 | -22.46047 | -42.80570 | 33086 ft | 502 kts | 65° |
| 2026-04-30 20:57 | -22.41789 | -42.70263 | 33100 ft | 500 kts | 65° |
| 2026-04-30 20:57 | -22.38950 | -42.63402 | 33112 ft | 500 kts | 65° |
| 2026-04-30 20:58 | -22.34695 | -42.53129 | 33125 ft | 500 kts | 65° |
| 2026-04-30 20:58 | -22.31865 | -42.46340 | 33133 ft | 499 kts | 64° |
| 2026-04-30 20:59 | -22.26680 | -42.36653 | 33163 ft | 496 kts | 53° |
| 2026-04-30 21:00 | -22.18371 | -42.24804 | 33181 ft | 496 kts | 51° |
| 2026-04-30 21:01 | -22.12094 | -42.15923 | 33144 ft | 497 kts | 51° |
| 2026-04-30 21:02 | -22.05820 | -42.07039 | 33120 ft | 495 kts | 51° |
| 2026-04-30 21:02 | -22.01647 | -42.01136 | 33119 ft | 494 kts | 51° |
| 2026-04-30 21:03 | -21.97504 | -41.95283 | 33121 ft | 495 kts | 51° |
| 2026-04-30 21:03 | -21.93321 | -41.89380 | 33124 ft | 496 kts | 51° |
| 2026-04-30 21:04 | -21.89128 | -41.83470 | 33121 ft | 496 kts | 51° |
| 2026-04-30 21:04 | -21.82864 | -41.74649 | 33131 ft | 496 kts | 51° |
| 2026-04-30 21:05 | -21.78680 | -41.68765 | 33137 ft | 495 kts | 51° |
| 2026-04-30 21:05 | -21.74496 | -41.62889 | 33125 ft | 495 kts | 51° |
| 2026-04-30 21:06 | -21.70309 | -41.57012 | 33098 ft | 494 kts | 51° |
| 2026-04-30 21:06 | -21.66187 | -41.51231 | 32631 ft | 480 kts | 51° |
| 2026-04-30 21:07 | -21.64162 | -41.48391 | 32056 ft | 477 kts | 51° |
| 2026-04-30 21:07 | -21.62178 | -41.45612 | 31493 ft | 474 kts | 51° |
| 2026-04-30 21:07 | -21.60182 | -41.42817 | 30969 ft | 469 kts | 51° |
| 2026-04-30 21:07 | -21.58204 | -41.40048 | 30452 ft | 465 kts | 51° |
| 2026-04-30 21:08 | -21.56246 | -41.37309 | 29945 ft | 460 kts | 51° |
| 2026-04-30 21:08 | -21.54310 | -41.34602 | 29430 ft | 456 kts | 50° |
| 2026-04-30 21:08 | -21.52387 | -41.31917 | 28902 ft | 452 kts | 50° |
| 2026-04-30 21:08 | -21.50413 | -41.29321 | 28367 ft | 447 kts | 46° |
| 2026-04-30 21:09 | -21.48274 | -41.26930 | 27844 ft | 441 kts | 41° |
| 2026-04-30 21:09 | -21.45991 | -41.24760 | 27336 ft | 435 kts | 37° |
| 2026-04-30 21:09 | -21.43667 | -41.22699 | 26829 ft | 431 kts | 37° |
| 2026-04-30 21:09 | -21.41355 | -41.20671 | 26306 ft | 427 kts | 37° |
| 2026-04-30 21:10 | -21.39063 | -41.18659 | 25780 ft | 424 kts | 37° |
| 2026-04-30 21:10 | -21.36824 | -41.16687 | 25275 ft | 420 kts | 37° |
| 2026-04-30 21:10 | -21.34574 | -41.14703 | 24761 ft | 417 kts | 37° |
| 2026-04-30 21:10 | -21.32345 | -41.12736 | 24258 ft | 413 kts | 37° |
| 2026-04-30 21:11 | -21.30134 | -41.10788 | 23760 ft | 410 kts | 37° |
| 2026-04-30 21:11 | -21.27940 | -41.08860 | 23275 ft | 406 kts | 37° |
| 2026-04-30 21:11 | -21.25763 | -41.06948 | 22801 ft | 402 kts | 37° |
| 2026-04-30 21:11 | -21.23607 | -41.05054 | 22324 ft | 399 kts | 37° |
| 2026-04-30 21:12 | -21.21466 | -41.03173 | 21826 ft | 396 kts | 37° |
| 2026-04-30 21:12 | -21.19340 | -41.01306 | 21326 ft | 394 kts | 37° |
| 2026-04-30 21:12 | -21.17228 | -40.99450 | 20837 ft | 391 kts | 37° |
| 2026-04-30 21:12 | -21.15129 | -40.97605 | 20347 ft | 389 kts | 37° |
| 2026-04-30 21:13 | -21.13043 | -40.95771 | 19854 ft | 387 kts | 37° |
| 2026-04-30 21:13 | -21.10965 | -40.93945 | 19363 ft | 385 kts | 37° |
| 2026-04-30 21:13 | -21.08925 | -40.92155 | 18885 ft | 383 kts | 37° |
| 2026-04-30 21:13 | -21.06867 | -40.90351 | 18416 ft | 381 kts | 37° |
| 2026-04-30 21:14 | -21.04819 | -40.88557 | 17947 ft | 379 kts | 38° |
| 2026-04-30 21:14 | -21.02782 | -40.86775 | 17487 ft | 377 kts | 38° |
| 2026-04-30 21:14 | -21.00756 | -40.85002 | 17031 ft | 375 kts | 38° |
| 2026-04-30 21:14 | -20.98738 | -40.83237 | 16611 ft | 372 kts | 38° |
| 2026-04-30 21:15 | -20.96742 | -40.81490 | 16220 ft | 368 kts | 38° |
| 2026-04-30 21:15 | -20.94767 | -40.79760 | 15821 ft | 365 kts | 38° |
| 2026-04-30 21:15 | -20.92809 | -40.78047 | 15426 ft | 362 kts | 38° |
| 2026-04-30 21:15 | -20.90869 | -40.76349 | 15021 ft | 359 kts | 39° |
| 2026-04-30 21:16 | -20.88958 | -40.74677 | 14615 ft | 356 kts | 39° |
| 2026-04-30 21:16 | -20.87044 | -40.73003 | 14202 ft | 353 kts | 39° |
| 2026-04-30 21:16 | -20.85150 | -40.71347 | 13795 ft | 350 kts | 39° |
| 2026-04-30 21:16 | -20.83271 | -40.69705 | 13371 ft | 348 kts | 39° |
| 2026-04-30 21:17 | -20.81457 | -40.68012 | 12944 ft | 345 kts | 44° |
| 2026-04-30 21:17 | -20.79841 | -40.66128 | 12508 ft | 343 kts | 51° |
| 2026-04-30 21:17 | -20.78406 | -40.64097 | 12059 ft | 341 kts | 54° |
| 2026-04-30 21:17 | -20.77025 | -40.62047 | 11647 ft | 338 kts | 55° |
| 2026-04-30 21:18 | -20.75662 | -40.60011 | 11235 ft | 335 kts | 55° |
| 2026-04-30 21:18 | -20.74311 | -40.57995 | 10807 ft | 332 kts | 55° |
| 2026-04-30 21:18 | -20.72986 | -40.56023 | 10378 ft | 330 kts | 55° |
| 2026-04-30 21:18 | -20.71652 | -40.54042 | 9937 ft | 327 kts | 55° |
| 2026-04-30 21:19 | -20.70328 | -40.52078 | 9490 ft | 324 kts | 55° |
| 2026-04-30 21:19 | -20.69015 | -40.50131 | 8997 ft | 322 kts | 55° |
| 2026-04-30 21:19 | -20.67710 | -40.48195 | 8502 ft | 321 kts | 55° |
| 2026-04-30 21:19 | -20.66408 | -40.46269 | 8036 ft | 319 kts | 54° |
| 2026-04-30 21:20 | -20.65113 | -40.44353 | 7607 ft | 317 kts | 54° |
| 2026-04-30 21:20 | -20.63828 | -40.42453 | 7190 ft | 314 kts | 54° |
| 2026-04-30 21:20 | -20.62553 | -40.40567 | 6781 ft | 312 kts | 54° |
| 2026-04-30 21:20 | -20.61288 | -40.38699 | 6384 ft | 309 kts | 54° |
| 2026-04-30 21:21 | -20.60035 | -40.36848 | 5991 ft | 306 kts | 54° |
| 2026-04-30 21:21 | -20.58793 | -40.35016 | 5599 ft | 303 kts | 54° |
| 2026-04-30 21:21 | -20.56366 | -40.31436 | 5027 ft | 290 kts | 53° |
| 2026-04-30 21:22 | -20.55210 | -40.29731 | 4952 ft | 276 kts | 53° |
| 2026-04-30 21:22 | -20.52042 | -40.25128 | 4738 ft | 237 kts | 45° |
| 2026-04-30 21:23 | -20.50656 | -40.24314 | 4633 ft | 227 kts | 8° |
| 2026-04-30 21:23 | -20.49089 | -40.24424 | 4350 ft | 225 kts | 350° |
| 2026-04-30 21:23 | -20.45994 | -40.24969 | 3744 ft | 224 kts | 352° |
| 2026-04-30 21:24 | -20.44459 | -40.25206 | 3519 ft | 219 kts | 352° |
| 2026-04-30 21:24 | -20.42991 | -40.25427 | 3327 ft | 211 kts | 353° |
| 2026-04-30 21:24 | -20.41559 | -40.25641 | 3099 ft | 202 kts | 353° |
| 2026-04-30 21:24 | -20.40194 | -40.25844 | 2912 ft | 192 kts | 353° |
| 2026-04-30 21:25 | -20.37619 | -40.26227 | 2355 ft | 183 kts | 354° |
| 2026-04-30 21:25 | -20.36368 | -40.26413 | 2083 ft | 179 kts | 354° |
| 2026-04-30 21:25 | -20.35172 | -40.26590 | 1854 ft | 165 kts | 354° |
| 2026-04-30 21:26 | -20.33034 | -40.26906 | 1381 ft | 148 kts | 355° |
| 2026-04-30 21:26 | -20.32015 | -40.27054 | 1185 ft | 147 kts | 354° |
| 2026-04-30 21:27 | -20.29988 | -40.27353 | 771 ft | 146 kts | 355° |
| 2026-04-30 21:27 | -20.28979 | -40.27497 | 556 ft | 145 kts | 355° |
| 2026-04-30 21:27 | -20.27988 | -40.27640 | 346 ft | 145 kts | 354° |
| 2026-04-30 21:28 | -20.26011 | -40.27938 | 18 ft | 124 kts | 353° |
| 2026-04-30 21:28 | -20.25428 | -40.28024 | 17 ft | 57 kts | 352° |
| 2026-04-30 21:28 | -20.25232 | -40.28101 | 16 ft | 8 kts | 228° |
| 2026-04-30 21:29 | -20.25284 | -40.28141 | 17 ft | 9 kts | 212° |
| 2026-04-30 21:29 | -20.25516 | -40.28186 | 17 ft | 13 kts | 171° |
| 2026-04-30 21:30 | -20.25709 | -40.28157 | 17 ft | 14 kts | 172° |
| 2026-04-30 21:31 | -20.26019 | -40.28110 | 17 ft | 15 kts | 172° |
| 2026-04-30 21:31 | -20.26217 | -40.28081 | 18 ft | 13 kts | 172° |
| 2026-04-30 21:32 | -20.26392 | -40.28056 | 18 ft | 11 kts | 172° |
| 2026-04-30 21:32 | -20.26460 | -40.28046 | 18 ft | 7 kts | 175° |
| 2026-04-30 21:32 | -20.26489 | -40.28081 | 18 ft | 7 kts | 262° |
| 2026-04-30 21:32 | -20.26496 | -40.28135 | 18 ft | 7 kts | 262° |
| 2026-04-30 21:33 | -20.26498 | -40.28151 | 18 ft | 1 kts | 262° |
| 2026-04-30 21:33 | -20.26501 | -40.28170 | 18 ft | 0 kts | 262° |